Patrick Air Force Base
KCOF : rendu visible

Aérodrome :











RETROUVEZ-NOUS SUR...

 
LOGIN :

S'inscrire | Disclaimer

   EN    FR    IT 

 









Légende :    VFR   VFR Marginal   IFR   IFR Intensif   IFR Très Intensif
Visi : 
Plafond : 
>= 8 km
>= 3000ft
5 à 8 km
1000 à 3000 ft
1500m à 5 km
500 à 1000 ft
800 à 1500m
200 à 500 ft
< 800m
< 200 ft
Symboles :   Orages  Brouillard  Fortes neiges  Fortes précipitations  Vent > 20 kt






- Altitude de l'aérodrome : 8 ft


KCOF - Patrick Air Force Base

DERNIER METAR :
  • 011256Z AUTO 13012KT 10SM CLR 26/22 A3007 RMK AO2 SLP187 T02560217 $

METARs EXPIRÉS :
  • 011156Z AUTO 03009KT 10SM SCT029 OVC044 24/21 A3005 RMK AO2 RAE20DZB20E23 SLP180 P0002 60020 70020 T02420213 10269 20240 51018 $
  • 011123Z AUTO 03014KT 10SM FEW029 SCT045 BKN055 24/22 A3005 RMK AO2 RAE20DZB20E23 SLP180 $
  • 011056Z AUTO 01012G18KT 4SM -RA FEW015 BKN032 24/22 A3005 RMK AO2 VIS 2 RWY03 RAB12 SLP180 P0018 T02430218 $

TAF TAF KCOF
Valide du 01 à 10h jusqu'au 02 à 16h UTC


011000Z 0110/0216 VRB06KT 9999 SCT035 BKN070 QNH3002INS
BECMG 0118/0119 05010G15KT 9999 SCT020 SCT070 QNH3007INS
BECMG 0122/0123 08010KT 9999 SCT020 SCT070 QNH3008INS TX30/0119Z TN24/0210Z
FIR KZMA / Amérique du Nord



MET'MAP, la Météo Aéronautique d'un coup d'oeil ! - Copyright ORBIFLY Décembre 2007 - Disclaimer

ORBIFLY MET'MAP TEAM :

Programmation & Développement : Alexandra Zaïnal
Sur une idée originale de : Baudouin d'Aumeries
Assistance à la programmation : Marc-Olivier Méhu
Soutien technique & logistique : Manuel Goepfert

Contact : metmap@orbifly.com




SOURCES & CREDITS :

   NOAA       Earth
Advisory